Time;durP1;ratioP1;P1;durP2;ratioP2;P2;SDS_P1;SDS_P2;PMS_P1;PMS_P2;Temp;Humidity;BMP_temperature;BMP_pressure;BME280_temperature;BME280_humidity;BME280_pressure;Samples;Min_cycle;Max_cycle;Signal;HPM_P1;HPM_P2
2023/05/05 00:00:00;;;;;;;;;;;;;;;17.34;66.06;100002.81;5090906;28;20354;-41
2023/05/05 00:02:26;;;;;;;;;;;;;;;17.38;65.86;99999.44;5091176;28;19916;-42
2023/05/05 00:04:51;;;;;;;;;;;;;;;17.48;65.18;99996.09;5091210;28;19935;-42
2023/05/05 00:07:17;;;;;;;;;;;;;;;17.32;65.40;99995.00;5090695;28;20024;-42
2023/05/05 00:09:42;;;;;;;;;;;;;;;17.40;65.65;100001.84;5090835;28;19912;-41
2023/05/05 00:12:07;;;;;;;;;;;;;;;17.54;65.67;99995.13;5090736;28;20006;-42
2023/05/05 00:14:33;;;;;;;;;;;;;;;17.60;64.45;99996.03;5083673;28;19955;-41
2023/05/05 00:16:58;;;;;;;;;;;;;;;17.65;64.74;99988.03;5085551;28;20225;-41
2023/05/05 00:19:23;;;;;;;;;;;;;;;17.75;63.69;99990.88;5091036;28;19912;-41
2023/05/05 00:21:49;;;;;;;;;;;;;;;17.67;63.89;99991.31;5090973;28;19966;-43
2023/05/05 00:24:14;;;;;;;;;;;;;;;17.52;63.67;99989.16;5090784;28;19919;-44
2023/05/05 00:26:39;;;;;;;;;;;;;;;17.44;64.01;99992.25;5090778;28;19920;-42
2023/05/05 00:29:05;;;;;;;;;;;;;;;17.45;64.50;99987.69;5090927;28;19954;-40
2023/05/05 00:31:30;;;;;;;;;;;;;;;17.35;65.31;99991.84;5090483;28;19919;-43
2023/05/05 00:33:55;;;;;;;;;;;;;;;17.08;65.60;99986.25;5094203;28;19916;-43
2023/05/05 00:36:21;;;;;;;;;;;;;;;17.25;65.24;99985.44;5094404;28;20003;-41
2023/05/05 00:38:46;;;;;;;;;;;;;;;17.39;64.67;99984.09;5094028;28;19962;-41
2023/05/05 00:41:11;;;;;;;;;;;;;;;17.42;64.86;99988.16;5094243;28;19931;-41
2023/05/05 00:43:37;;;;;;;;;;;;;;;17.47;64.97;99985.56;5094275;28;19938;-41
2023/05/05 00:46:25;;;;;;;;;;;;;;;17.54;64.37;99988.94;5094249;28;20249;-42
2023/05/05 00:48:50;;;;;;;;;;;;;;;17.66;63.79;99989.66;5090771;28;20294;-41
2023/05/05 00:51:16;;;;;;;;;;;;;;;17.68;64.07;99989.41;5094010;28;19920;-41
2023/05/05 00:53:43;;;;;;;;;;;;;;;17.68;64.43;99990.22;5093925;28;20011;-41
2023/05/05 00:56:09;;;;;;;;;;;;;;;17.80;63.89;99982.09;5093938;28;20356;-42
2023/05/05 00:58:35;;;;;;;;;;;;;;;17.89;63.68;99985.19;5094128;28;20367;-41
2023/05/05 01:01:00;;;;;;;;;;;;;;;17.74;63.75;99981.19;5093801;28;20025;-41
2023/05/05 01:03:26;;;;;;;;;;;;;;;17.70;64.28;99980.03;5093314;28;19919;-41
2023/05/05 01:06:03;;;;;;;;;;;;;;;17.66;64.25;99980.78;5093588;28;19935;-41
2023/05/05 01:08:47;;;;;;;;;;;;;;;17.49;64.31;99975.38;5093828;28;19913;-41
2023/05/05 01:11:20;;;;;;;;;;;;;;;17.59;64.76;99979.06;5093951;28;19965;-41
2023/05/05 01:14:01;;;;;;;;;;;;;;;17.70;63.96;99965.75;5093979;28;19991;-41
2023/05/05 01:16:28;;;;;;;;;;;;;;;17.55;64.47;99969.84;5093582;28;19916;-41
2023/05/05 01:19:22;;;;;;;;;;;;;;;17.52;64.89;99970.34;5093358;28;19969;-41
2023/05/05 01:21:55;;;;;;;;;;;;;;;17.69;64.16;99959.56;5088462;28;19914;-41
2023/05/05 01:24:39;;;;;;;;;;;;;;;17.82;63.53;99962.97;5093452;28;19920;-41
2023/05/05 01:27:24;;;;;;;;;;;;;;;17.80;63.36;99960.56;5092965;28;19928;-42
2023/05/05 01:29:58;;;;;;;;;;;;;;;17.51;64.25;99955.22;5093350;28;19912;-41
2023/05/05 01:32:29;;;;;;;;;;;;;;;17.65;63.79;99962.97;5091833;28;19908;-41
2023/05/05 01:35:00;;;;;;;;;;;;;;;17.66;64.08;99953.88;5093048;28;19911;-42
2023/05/05 01:37:37;;;;;;;;;;;;;;;17.62;65.11;99955.41;5092610;28;19920;-42
2023/05/05 01:40:04;;;;;;;;;;;;;;;17.62;65.00;99960.81;5092899;28;19943;-41
2023/05/05 01:42:31;;;;;;;;;;;;;;;17.55;65.21;99958.25;5092595;28;19954;-43
2023/05/05 01:44:57;;;;;;;;;;;;;;;17.55;65.19;99952.88;5093083;28;20040;-43
2023/05/05 01:47:23;;;;;;;;;;;;;;;17.45;65.41;99953.53;5092626;28;20006;-41
2023/05/05 01:49:49;;;;;;;;;;;;;;;17.50;65.68;99959.00;5092932;28;20057;-42
2023/05/05 01:52:15;;;;;;;;;;;;;;;17.59;65.50;99954.00;5092872;28;19912;-42
2023/05/05 01:54:41;;;;;;;;;;;;;;;17.52;65.53;99948.00;5093128;28;19916;-41
2023/05/05 01:57:08;;;;;;;;;;;;;;;17.65;65.56;99952.22;5092647;28;20296;-42
2023/05/05 01:59:35;;;;;;;;;;;;;;;17.55;65.57;99944.81;5092885;28;20385;-42
2023/05/05 02:02:01;;;;;;;;;;;;;;;17.68;64.95;99944.47;5092853;28;19919;-42
2023/05/05 02:04:28;;;;;;;;;;;;;;;17.78;64.34;99947.34;5092674;28;20379;-42
2023/05/05 02:06:55;;;;;;;;;;;;;;;17.76;64.29;99948.63;5092483;28;19916;-42
2023/05/05 02:09:22;;;;;;;;;;;;;;;17.56;64.88;99957.22;5092628;28;19912;-42
2023/05/05 02:11:47;;;;;;;;;;;;;;;17.34;66.17;99951.72;5092926;28;19955;-42
2023/05/05 02:14:14;;;;;;;;;;;;;;;17.44;65.45;99949.22;5092552;28;19943;-42
2023/05/05 02:16:41;;;;;;;;;;;;;;;17.08;66.37;99945.09;5092421;28;19972;-41
2023/05/05 02:19:07;;;;;;;;;;;;;;;17.03;66.55;99947.69;5092344;28;19912;-42
2023/05/05 02:21:33;;;;;;;;;;;;;;;16.98;67.10;99943.84;5092388;28;19912;-42
2023/05/05 02:23:58;;;;;;;;;;;;;;;17.11;67.54;99947.28;5092412;28;20029;-42
2023/05/05 02:26:23;;;;;;;;;;;;;;;17.38;66.54;99939.41;5092088;28;20260;-42
2023/05/05 02:29:07;;;;;;;;;;;;;;;17.50;65.54;99950.13;5092146;28;20569;-42
2023/05/05 02:31:44;;;;;;;;;;;;;;;17.51;65.44;99949.03;5091923;28;20372;-41
2023/05/05 02:34:10;;;;;;;;;;;;;;;17.45;65.49;99950.03;5091788;28;19929;-42
2023/05/05 02:36:39;;;;;;;;;;;;;;;17.48;65.61;99944.19;5091838;28;19916;-41
2023/05/05 02:39:23;;;;;;;;;;;;;;;17.56;65.65;99941.88;5091987;28;19947;-42
2023/05/05 02:41:50;;;;;;;;;;;;;;;17.57;65.30;99948.91;5091828;28;19912;-42
2023/05/05 02:44:15;;;;;;;;;;;;;;;17.33;65.65;99942.03;5092113;28;19936;-43
2023/05/05 02:46:41;;;;;;;;;;;;;;;17.38;65.02;99936.72;5091533;28;20320;-42
2023/05/05 02:49:06;;;;;;;;;;;;;;;17.22;65.04;99941.03;5091466;28;19923;-42
2023/05/05 02:51:32;;;;;;;;;;;;;;;17.05;65.85;99937.50;5091582;28;19985;-42
2023/05/05 02:53:57;;;;;;;;;;;;;;;16.80;67.10;99936.75;5091877;28;20376;-41
2023/05/05 02:56:29;;;;;;;;;;;;;;;16.58;68.12;99938.47;5090801;28;19912;-41
2023/05/05 02:59:08;;;;;;;;;;;;;;;16.76;66.83;99940.16;5091575;28;19912;-42
2023/05/05 03:01:57;;;;;;;;;;;;;;;17.11;67.02;99948.09;5091582;28;20294;-42
2023/05/05 03:04:28;;;;;;;;;;;;;;;17.02;66.07;99946.03;5080969;28;19969;-40
2023/05/05 03:06:56;;;;;;;;;;;;;;;16.90;66.63;99941.53;5091644;28;19943;-40
2023/05/05 03:09:24;;;;;;;;;;;;;;;17.08;66.09;99942.41;5091338;28;20425;-40
2023/05/05 03:11:53;;;;;;;;;;;;;;;17.22;65.82;99937.53;5091163;28;20017;-41
2023/05/05 03:14:20;;;;;;;;;;;;;;;17.27;65.58;99938.44;5090952;28;20092;-41
2023/05/05 03:16:46;;;;;;;;;;;;;;;16.92;66.66;99938.59;5091248;28;19916;-41
2023/05/05 03:19:12;;;;;;;;;;;;;;;17.12;66.32;99943.56;5091164;28;20494;-41
2023/05/05 03:21:39;;;;;;;;;;;;;;;16.46;69.20;99937.69;5090799;28;19962;-41
2023/05/05 03:24:14;;;;;;;;;;;;;;;16.64;68.97;99939.38;5090333;28;21248;-41
2023/05/05 03:26:39;;;;;;;;;;;;;;;16.32;70.03;99940.63;5089492;28;19962;-41
2023/05/05 03:29:05;;;;;;;;;;;;;;;16.63;69.50;99948.50;5090045;28;20507;-41
2023/05/05 03:31:30;;;;;;;;;;;;;;;16.83;67.83;99948.94;5090379;28;19919;-41
2023/05/05 03:33:56;;;;;;;;;;;;;;;16.61;67.91;99948.75;5090544;28;19927;-41
2023/05/05 03:36:21;;;;;;;;;;;;;;;16.62;68.97;99950.38;5090595;28;19923;-41
2023/05/05 03:38:46;;;;;;;;;;;;;;;16.87;68.00;99955.47;5090643;28;19916;-41
2023/05/05 03:41:12;;;;;;;;;;;;;;;16.94;67.63;99956.13;5090506;28;19919;-41
2023/05/05 03:43:38;;;;;;;;;;;;;;;16.73;68.65;99960.25;5090475;28;19912;-41
2023/05/05 03:46:03;;;;;;;;;;;;;;;16.59;68.21;99965.09;5090463;28;19913;-41
2023/05/05 03:48:28;;;;;;;;;;;;;;;16.88;68.23;99967.03;5090156;28;19919;-41
2023/05/05 03:50:54;;;;;;;;;;;;;;;16.88;67.71;99970.53;5090401;28;19935;-42
2023/05/05 03:53:19;;;;;;;;;;;;;;;16.96;67.32;99963.94;5090555;28;19916;-42
2023/05/05 03:55:44;;;;;;;;;;;;;;;16.34;69.24;99961.88;5090617;28;19996;-41
2023/05/05 03:58:10;;;;;;;;;;;;;;;16.33;70.03;99968.31;5090662;28;19916;-41
2023/05/05 04:00:35;;;;;;;;;;;;;;;16.35;70.04;99974.25;5090679;28;20309;-41
2023/05/05 04:03:00;;;;;;;;;;;;;;;16.26;70.06;99975.66;5090405;28;19958;-41
2023/05/05 04:05:26;;;;;;;;;;;;;;;16.09;70.66;99975.53;5090669;28;20419;-43
2023/05/05 04:07:51;;;;;;;;;;;;;;;15.76;72.83;99974.25;5094793;28;19952;-41
2023/05/05 04:10:16;;;;;;;;;;;;;;;15.75;72.72;99978.81;5094181;28;20449;-41
2023/05/05 04:12:41;;;;;;;;;;;;;;;15.55;73.08;99978.28;5093977;28;19943;-41
2023/05/05 04:15:07;;;;;;;;;;;;;;;15.72;72.57;99971.19;5093540;28;20006;-41
2023/05/05 04:17:32;;;;;;;;;;;;;;;15.88;71.13;99972.41;5081075;28;20230;-41
2023/05/05 04:19:58;;;;;;;;;;;;;;;15.97;69.88;99973.72;5073594;28;19916;-40
2023/05/05 04:22:23;;;;;;;;;;;;;;;16.01;69.56;99979.41;5073584;28;19920;-42
2023/05/05 04:24:48;;;;;;;;;;;;;;;16.24;68.89;99983.97;5078504;28;19912;-41
2023/05/05 04:27:14;;;;;;;;;;;;;;;15.97;68.70;99986.28;5093867;28;19924;-41
2023/05/05 04:29:39;;;;;;;;;;;;;;;16.01;68.90;99980.25;5093754;28;19919;-42
2023/05/05 04:32:05;;;;;;;;;;;;;;;15.94;68.83;99986.78;5093403;28;20037;-41
2023/05/05 04:34:30;;;;;;;;;;;;;;;15.70;70.77;99992.06;5093816;28;19919;-41
2023/05/05 04:36:55;;;;;;;;;;;;;;;15.33;70.78;99986.88;5093753;28;19923;-41
2023/05/05 04:39:21;;;;;;;;;;;;;;;15.68;69.42;99988.81;5093812;28;19999;-41
2023/05/05 04:41:46;;;;;;;;;;;;;;;15.54;69.81;99990.06;5093362;28;19919;-41
2023/05/05 04:44:11;;;;;;;;;;;;;;;15.80;68.47;99988.84;5094223;28;20267;-42
2023/05/05 04:46:36;;;;;;;;;;;;;;;15.88;67.90;99991.19;5093419;28;20281;-42
2023/05/05 04:49:03;;;;;;;;;;;;;;;15.94;67.21;99995.63;5093365;28;19912;-41
2023/05/05 04:51:29;;;;;;;;;;;;;;;15.96;66.70;99988.16;5091561;28;19916;-41
2023/05/05 04:53:54;;;;;;;;;;;;;;;15.76;67.08;99991.19;5091592;28;19999;-41
2023/05/05 04:56:20;;;;;;;;;;;;;;;15.78;66.69;99993.63;5090946;28;20352;-41
2023/05/05 04:58:45;;;;;;;;;;;;;;;15.46;67.08;99991.22;5091341;28;19919;-42
2023/05/05 05:01:10;;;;;;;;;;;;;;;15.74;65.91;99989.78;5091558;28;19952;-41
2023/05/05 05:03:36;;;;;;;;;;;;;;;15.66;66.55;99987.41;5104292;28;19941;-41
2023/05/05 05:06:01;;;;;;;;;;;;;;;15.47;66.65;99992.03;5095363;28;19912;-41
2023/05/05 05:08:27;;;;;;;;;;;;;;;15.64;66.67;99996.50;5091195;28;19916;-41
2023/05/05 05:10:52;;;;;;;;;;;;;;;15.67;66.17;99995.22;5091538;28;20357;-41
2023/05/05 05:13:17;;;;;;;;;;;;;;;15.92;67.15;99994.25;5091631;28;19912;-41
2023/05/05 05:15:43;;;;;;;;;;;;;;;15.68;66.29;99996.84;5092338;28;20399;-42
2023/05/05 05:18:09;;;;;;;;;;;;;;;15.76;65.86;100006.44;5091708;28;19920;-42
2023/05/05 05:20:34;;;;;;;;;;;;;;;15.47;67.89;100000.88;5092454;28;19923;-41
2023/05/05 05:23:00;;;;;;;;;;;;;;;15.48;66.11;99997.16;5092374;28;19943;-42
2023/05/05 05:25:26;;;;;;;;;;;;;;;15.28;67.46;100007.38;5092632;28;19913;-40
2023/05/05 05:27:51;;;;;;;;;;;;;;;15.92;66.12;100003.09;5093741;28;19916;-41
2023/05/05 05:30:16;;;;;;;;;;;;;;;16.29;65.20;99999.38;5088930;28;19920;-41
2023/05/05 05:32:42;;;;;;;;;;;;;;;16.21;65.02;100003.22;5101005;28;19912;-41
2023/05/05 05:35:07;;;;;;;;;;;;;;;16.00;65.10;100010.81;5104947;28;19916;-41
2023/05/05 05:37:33;;;;;;;;;;;;;;;15.71;66.87;100015.19;5108852;28;20370;-41
2023/05/05 05:39:58;;;;;;;;;;;;;;;16.18;65.59;100009.88;5087001;28;19920;-41
2023/05/05 05:42:24;;;;;;;;;;;;;;;16.23;64.78;100015.34;5092232;28;19915;-41
2023/05/05 05:44:49;;;;;;;;;;;;;;;16.34;64.23;100011.03;5090773;28;19959;-41
2023/05/05 05:47:14;;;;;;;;;;;;;;;16.67;63.28;100022.22;5085221;28;19923;-42
2023/05/05 05:49:40;;;;;;;;;;;;;;;16.81;63.00;100010.97;5075893;28;19923;-41
2023/05/05 05:52:05;;;;;;;;;;;;;;;16.40;63.71;100020.03;5091098;28;19916;-40
2023/05/05 05:54:33;;;;;;;;;;;;;;;16.66;63.06;100012.50;5092777;28;19912;-41
2023/05/05 05:56:58;;;;;;;;;;;;;;;16.91;62.20;100023.00;5091986;28;19920;-43
2023/05/05 05:59:23;;;;;;;;;;;;;;;16.61;63.78;100015.91;5090923;28;20180;-40
2023/05/05 06:01:49;;;;;;;;;;;;;;;16.35;63.52;100011.84;5091026;28;19947;-41
2023/05/05 06:04:14;;;;;;;;;;;;;;;16.57;62.79;100012.06;5091263;28;19924;-42
2023/05/05 06:06:40;;;;;;;;;;;;;;;16.37;63.49;100015.94;5091436;28;19912;-41
2023/05/05 06:09:05;;;;;;;;;;;;;;;17.09;61.35;100011.25;5091174;28;20277;-41
2023/05/05 06:11:30;;;;;;;;;;;;;;;16.44;63.31;100018.50;5091035;28;19954;-41
2023/05/05 06:13:55;;;;;;;;;;;;;;;16.29;64.84;100013.59;5076472;28;20370;-40
2023/05/05 06:16:21;;;;;;;;;;;;;;;16.30;63.53;100017.13;5071019;28;19920;-41
2023/05/05 06:18:46;;;;;;;;;;;;;;;16.47;63.18;100014.50;5070899;28;19932;-41
2023/05/05 06:21:12;;;;;;;;;;;;;;;16.80;62.89;100019.25;5070454;28;19935;-41
2023/05/05 06:23:38;;;;;;;;;;;;;;;16.97;60.85;100022.03;5070669;28;19939;-41
2023/05/05 06:26:03;;;;;;;;;;;;;;;17.04;61.73;100021.88;5085643;28;19920;-41
2023/05/05 06:28:28;;;;;;;;;;;;;;;17.10;60.23;100019.06;5091568;28;19916;-41
2023/05/05 06:30:53;;;;;;;;;;;;;;;17.50;59.48;100026.25;5090006;28;19918;-41
2023/05/05 06:33:19;;;;;;;;;;;;;;;17.17;60.08;100019.75;5089475;28;20252;-41
2023/05/05 06:35:44;;;;;;;;;;;;;;;17.32;60.01;100021.09;5089661;28;19982;-41
2023/05/05 06:38:11;;;;;;;;;;;;;;;17.58;58.66;100030.44;5090483;28;19916;-41
2023/05/05 06:40:37;;;;;;;;;;;;;;;17.71;58.53;100023.94;5090454;28;19913;-41
2023/05/05 06:43:02;;;;;;;;;;;;;;;18.09;57.96;100023.22;5090422;28;19920;-41
2023/05/05 06:45:27;;;;;;;;;;;;;;;18.40;56.71;100025.53;5090427;28;19912;-41
2023/05/05 06:47:53;;;;;;;;;;;;;;;17.57;58.30;100018.03;5090956;28;20202;-41
2023/05/05 06:50:18;;;;;;;;;;;;;;;18.36;55.91;100017.13;5090954;28;19912;-42
2023/05/05 06:52:44;;;;;;;;;;;;;;;18.28;57.22;100013.00;5090608;28;20375;-41
2023/05/05 06:55:09;;;;;;;;;;;;;;;18.50;56.15;100022.97;5090693;28;19959;-41
2023/05/05 06:57:34;;;;;;;;;;;;;;;18.66;54.27;100018.63;5090485;28;20307;-41
2023/05/05 07:00:02;;;;;;;;;;;;;;;18.56;55.42;100014.72;5090931;28;19998;-41
2023/05/05 07:02:27;;;;;;;;;;;;;;;19.34;53.83;100013.72;5090570;28;20372;-41
2023/05/05 07:04:54;;;;;;;;;;;;;;;19.75;51.57;100013.34;5090671;28;19958;-40
2023/05/05 07:07:19;;;;;;;;;;;;;;;20.27;50.79;100005.31;5090467;28;20464;-41
2023/05/05 07:09:45;;;;;;;;;;;;;;;20.83;48.70;100010.22;5090634;28;19912;-41
2023/05/05 07:12:10;;;;;;;;;;;;;;;20.20;50.30;100017.44;5090673;28;20310;-40
2023/05/05 07:14:35;;;;;;;;;;;;;;;20.46;48.81;100013.78;5090231;28;19912;-41
2023/05/05 07:17:00;;;;;;;;;;;;;;;21.34;47.77;100008.72;5090444;28;20379;-40
2023/05/05 07:19:26;;;;;;;;;;;;;;;21.34;46.97;100008.72;5090724;28;19992;-40
2023/05/05 07:21:51;;;;;;;;;;;;;;;21.00;46.62;100007.31;5091013;28;20339;-40
2023/05/05 07:24:16;;;;;;;;;;;;;;;20.84;47.74;100001.00;5090508;28;19916;-41
2023/05/05 07:26:42;;;;;;;;;;;;;;;20.62;48.00;100014.72;5090224;28;19920;-41
2023/05/05 07:29:07;;;;;;;;;;;;;;;20.43;47.05;100013.53;5089744;28;20625;-40
2023/05/05 07:31:32;;;;;;;;;;;;;;;20.78;48.10;100012.91;5089671;28;20331;-40
2023/05/05 07:33:58;;;;;;;;;;;;;;;21.03;47.19;100009.47;5089797;28;19979;-40
2023/05/05 07:36:23;;;;;;;;;;;;;;;21.55;46.23;100013.13;5089751;28;20241;-40
2023/05/05 07:38:48;;;;;;;;;;;;;;;22.29;45.25;100027.16;5089761;28;19916;-41
2023/05/05 07:41:14;;;;;;;;;;;;;;;22.84;44.32;100025.34;5092161;28;20319;-41
2023/05/05 07:43:42;;;;;;;;;;;;;;;22.86;43.62;100025.09;5096661;28;19963;-41
2023/05/05 07:46:07;;;;;;;;;;;;;;;23.51;42.49;100016.06;5096607;28;19916;-39
2023/05/05 07:48:33;;;;;;;;;;;;;;;23.70;41.29;100019.69;5096519;28;19920;-40
2023/05/05 07:50:58;;;;;;;;;;;;;;;24.10;40.96;100025.09;5096416;28;20124;-39
2023/05/05 07:53:23;;;;;;;;;;;;;;;24.11;41.13;100018.56;5096478;28;19919;-39
2023/05/05 07:55:49;;;;;;;;;;;;;;;24.35;40.72;100021.28;5096286;28;19919;-39
2023/05/05 07:58:14;;;;;;;;;;;;;;;24.32;40.48;100016.44;5096996;28;20344;-40
2023/05/05 08:00:39;;;;;;;;;;;;;;;24.31;39.97;100012.09;5096827;28;20040;-40
2023/05/05 08:03:05;;;;;;;;;;;;;;;24.89;38.71;100011.19;5096965;28;20002;-40
2023/05/05 08:05:30;;;;;;;;;;;;;;;24.70;38.87;100009.22;5096239;28;20388;-40
2023/05/05 08:07:55;;;;;;;;;;;;;;;24.10;39.91;100001.44;5097283;28;19916;-40
2023/05/05 08:10:21;;;;;;;;;;;;;;;24.30;40.55;100005.84;5097414;28;19912;-40
2023/05/05 08:12:46;;;;;;;;;;;;;;;23.80;40.51;100008.00;5096736;28;19947;-40
2023/05/05 08:15:11;;;;;;;;;;;;;;;24.14;39.74;99998.94;5096764;28;19929;-40
2023/05/05 08:17:44;;;;;;;;;;;;;;;25.30;38.67;100005.19;5096319;28;20035;-40
2023/05/05 08:20:10;;;;;;;;;;;;;;;24.51;38.81;100000.19;5095087;28;19916;-40
2023/05/05 08:22:35;;;;;;;;;;;;;;;24.91;38.42;100004.34;5094365;28;20006;-40
2023/05/05 08:25:01;;;;;;;;;;;;;;;25.00;38.52;100003.66;5095527;28;20377;-40
2023/05/05 08:27:26;;;;;;;;;;;;;;;25.13;38.43;100000.22;5096281;28;19924;-40
2023/05/05 08:29:51;;;;;;;;;;;;;;;26.00;37.42;100001.59;5093788;28;19923;-40
2023/05/05 08:32:16;;;;;;;;;;;;;;;26.01;37.32;99996.97;5094662;28;20034;-40
2023/05/05 08:34:42;;;;;;;;;;;;;;;25.95;36.68;99988.09;5094897;28;19916;-40
2023/05/05 08:37:07;;;;;;;;;;;;;;;26.07;37.58;99998.50;5096248;28;19947;-40
2023/05/05 08:39:32;;;;;;;;;;;;;;;26.09;37.58;100002.53;5093281;28;19928;-40
2023/05/05 08:41:58;;;;;;;;;;;;;;;26.32;37.03;100005.41;5096199;28;20402;-40
2023/05/05 08:44:25;;;;;;;;;;;;;;;26.52;36.37;99998.72;5096213;28;19919;-40
2023/05/05 08:46:51;;;;;;;;;;;;;;;26.04;36.96;99999.09;5096132;28;19919;-40
2023/05/05 08:49:17;;;;;;;;;;;;;;;25.46;37.76;100003.84;5095163;28;19916;-40
2023/05/05 08:51:44;;;;;;;;;;;;;;;26.61;36.26;100005.09;5093278;28;19920;-41
2023/05/05 08:54:14;;;;;;;;;;;;;;;26.13;36.49;100006.28;5093079;28;19949;-40
2023/05/05 08:56:43;;;;;;;;;;;;;;;26.64;36.13;100004.50;5095260;28;20017;-40
2023/05/05 08:59:10;;;;;;;;;;;;;;;26.62;35.51;99997.75;5098280;28;19932;-40
2023/05/05 09:01:35;;;;;;;;;;;;;;;26.89;34.70;100002.34;5093067;28;20003;-40
2023/05/05 09:04:02;;;;;;;;;;;;;;;27.48;34.22;99986.81;5092678;28;19951;-40
2023/05/05 09:06:27;;;;;;;;;;;;;;;27.72;34.38;99999.38;5090775;28;19923;-40
2023/05/05 09:08:53;;;;;;;;;;;;;;;26.83;34.75;99992.66;5093180;28;19912;-40
2023/05/05 09:11:18;;;;;;;;;;;;;;;27.29;34.34;99989.72;5092945;28;20003;-40
2023/05/05 09:13:44;;;;;;;;;;;;;;;27.95;33.75;99986.50;5093130;28;20268;-40
2023/05/05 09:16:09;;;;;;;;;;;;;;;27.36;33.48;99988.47;5093005;28;19937;-40
2023/05/05 09:18:39;;;;;;;;;;;;;;;26.46;34.88;99987.09;5092640;28;19916;-40
2023/05/05 09:21:18;;;;;;;;;;;;;;;27.04;34.71;99982.09;5092951;28;19919;-40
2023/05/05 09:24:02;;;;;;;;;;;;;;;27.55;34.03;99975.47;5093034;28;19919;-41
2023/05/05 09:26:29;;;;;;;;;;;;;;;26.70;35.48;99977.91;5092190;28;19930;-41
2023/05/05 09:28:55;;;;;;;;;;;;;;;26.50;35.53;99979.09;5092763;28;19916;-41
2023/05/05 09:31:20;;;;;;;;;;;;;;;26.74;34.65;99975.38;5092062;28;19913;-40
2023/05/05 09:33:45;;;;;;;;;;;;;;;26.97;34.44;99965.31;5091805;28;19912;-42
2023/05/05 09:36:11;;;;;;;;;;;;;;;26.55;34.19;99972.75;5091632;28;19912;-40
2023/05/05 09:38:36;;;;;;;;;;;;;;;27.23;33.39;99966.34;5092001;28;20257;-40
2023/05/05 09:41:01;;;;;;;;;;;;;;;27.80;32.34;99970.47;5092555;28;20316;-41
2023/05/05 09:43:27;;;;;;;;;;;;;;;28.31;32.85;99960.91;5092749;28;20420;-39
2023/05/05 09:46:03;;;;;;;;;;;;;;;29.37;31.17;99960.72;5092184;28;20410;-40
2023/05/05 09:48:30;;;;;;;;;;;;;;;29.18;30.64;99958.31;5092591;28;19916;-40
2023/05/05 09:50:56;;;;;;;;;;;;;;;29.09;30.10;99952.00;5092065;28;19913;-40
2023/05/05 09:53:22;;;;;;;;;;;;;;;28.93;30.68;99945.41;5092301;28;19916;-41
2023/05/05 09:55:57;;;;;;;;;;;;;;;29.31;29.34;99944.78;5092126;28;19920;-41
2023/05/05 09:58:29;;;;;;;;;;;;;;;28.97;30.45;99943.63;5110031;28;19916;-42
2023/05/05 10:00:56;;;;;;;;;;;;;;;29.56;28.58;99941.19;5112694;28;19916;-41
2023/05/05 10:03:21;;;;;;;;;;;;;;;28.30;30.55;99940.13;5112825;28;19918;-40
2023/05/05 10:05:51;;;;;;;;;;;;;;;27.44;31.58;99944.84;5112266;28;19911;-41
2023/05/05 10:08:20;;;;;;;;;;;;;;;27.39;31.64;99939.50;5112681;28;20406;-41
2023/05/05 10:10:49;;;;;;;;;;;;;;;28.07;31.39;99931.19;5112096;28;20346;-41
2023/05/05 10:13:17;;;;;;;;;;;;;;;28.58;29.53;99931.69;5112474;28;19919;-41
2023/05/05 10:15:43;;;;;;;;;;;;;;;28.59;29.84;99922.34;5112103;28;19977;-41
2023/05/05 10:18:09;;;;;;;;;;;;;;;28.07;30.62;99923.00;5112153;28;19964;-41
2023/05/05 10:20:37;;;;;;;;;;;;;;;27.81;31.24;99912.72;5111811;28;20010;-40
2023/05/05 10:23:05;;;;;;;;;;;;;;;27.34;31.99;99914.22;5111650;28;20371;-40
2023/05/05 10:25:34;;;;;;;;;;;;;;;27.77;31.80;99903.53;5100478;28;19912;-41
2023/05/05 10:28:00;;;;;;;;;;;;;;;27.87;31.89;99899.72;5091269;28;19920;-40
2023/05/05 10:30:28;;;;;;;;;;;;;;;27.29;31.44;99909.69;5091496;28;19916;-40
2023/05/05 10:32:57;;;;;;;;;;;;;;;27.69;31.64;99896.91;5090960;28;19913;-41
2023/05/05 10:35:23;;;;;;;;;;;;;;;28.03;32.27;99897.41;5091048;28;19912;-41
2023/05/05 10:37:49;;;;;;;;;;;;;;;27.37;32.57;99895.28;5091139;28;19952;-41
2023/05/05 10:40:15;;;;;;;;;;;;;;;27.78;32.47;99887.94;5090932;28;19933;-40
2023/05/05 10:42:40;;;;;;;;;;;;;;;29.33;30.23;99887.72;5090792;28;19912;-41
2023/05/05 10:45:06;;;;;;;;;;;;;;;30.06;28.53;99893.09;5090972;28;19930;-41
2023/05/05 10:47:32;;;;;;;;;;;;;;;28.12;31.45;99886.47;5091911;28;20015;-40
2023/05/05 10:50:03;;;;;;;;;;;;;;;28.07;30.92;99881.97;5091167;28;20355;-40
2023/05/05 10:52:35;;;;;;;;;;;;;;;28.18;30.60;99883.28;5091024;28;20018;-41
2023/05/05 10:55:03;;;;;;;;;;;;;;;28.89;30.17;99881.47;5090676;28;19915;-40
2023/05/05 10:57:31;;;;;;;;;;;;;;;27.37;30.95;99884.34;5101198;28;19916;-40
2023/05/05 10:59:56;;;;;;;;;;;;;;;27.53;31.07;99884.78;5110998;28;19912;-41
2023/05/05 11:02:22;;;;;;;;;;;;;;;27.84;30.74;99879.28;5111300;28;20006;-40
2023/05/05 11:05:07;;;;;;;;;;;;;;;28.15;30.33;99874.91;5110675;28;20256;-40
2023/05/05 11:07:33;;;;;;;;;;;;;;;27.81;30.92;99877.16;5111363;28;19912;-41
2023/05/05 11:10:05;;;;;;;;;;;;;;;27.78;30.62;99872.34;5111289;28;20394;-40
2023/05/05 11:12:31;;;;;;;;;;;;;;;28.23;29.80;99869.44;5111219;28;19919;-41
2023/05/05 11:15:15;;;;;;;;;;;;;;;27.01;31.45;99868.03;5110825;28;20001;-40
2023/05/05 11:17:45;;;;;;;;;;;;;;;27.19;31.42;99871.66;5110844;28;20303;-41
2023/05/05 11:20:10;;;;;;;;;;;;;;;26.68;31.93;99862.78;5110816;28;20006;-41
2023/05/05 11:22:56;;;;;;;;;;;;;;;27.50;31.37;99864.34;5110934;28;19951;-41
2023/05/05 11:25:36;;;;;;;;;;;;;;;28.12;30.48;99856.38;5100414;27;19916;-40
2023/05/05 11:28:09;;;;;;;;;;;;;;;28.60;29.91;99853.59;5090238;28;19946;-41
2023/05/05 11:30:35;;;;;;;;;;;;;;;28.64;30.12;99854.56;5090279;28;20010;-41
2023/05/05 11:33:19;;;;;;;;;;;;;;;28.08;30.30;99848.00;5090492;28;20355;-41
2023/05/05 11:35:53;;;;;;;;;;;;;;;27.99;29.94;99839.00;5089874;28;19922;-41
2023/05/05 11:38:20;;;;;;;;;;;;;;;28.38;29.42;99840.81;5090360;28;19931;-41
2023/05/05 11:40:46;;;;;;;;;;;;;;;28.32;29.94;99833.09;5090403;28;19912;-41
2023/05/05 11:43:12;;;;;;;;;;;;;;;28.66;29.46;99826.88;5090063;28;19912;-41
2023/05/05 11:45:37;;;;;;;;;;;;;;;29.08;28.84;99824.41;5088617;28;19916;-41
2023/05/05 11:48:21;;;;;;;;;;;;;;;28.87;29.54;99827.00;5089910;28;20007;-41
2023/05/05 11:50:47;;;;;;;;;;;;;;;29.35;28.91;99820.47;5090053;28;19961;-41
2023/05/05 11:53:12;;;;;;;;;;;;;;;29.64;29.09;99821.66;5089864;28;20007;-42
2023/05/05 11:55:38;;;;;;;;;;;;;;;29.34;29.74;99824.38;5089724;28;19999;-40
2023/05/05 11:58:16;;;;;;;;;;;;;;;28.34;29.35;99814.44;5105157;28;19916;-41
2023/05/05 12:00:41;;;;;;;;;;;;;;;27.29;30.87;99808.63;5110382;28;20050;-41
2023/05/05 12:03:07;;;;;;;;;;;;;;;27.19;31.42;99814.31;5110241;28;19947;-41
2023/05/05 12:05:33;;;;;;;;;;;;;;;27.36;30.94;99806.25;5110037;28;20279;-41
2023/05/05 12:07:58;;;;;;;;;;;;;;;26.46;32.54;99806.22;5110388;28;19957;-41
2023/05/05 12:10:23;;;;;;;;;;;;;;;26.43;32.88;99807.66;5110445;28;19915;-41
2023/05/05 12:12:49;;;;;;;;;;;;;;;26.84;32.27;99803.97;5109830;28;20378;-41
2023/05/05 12:15:14;;;;;;;;;;;;;;;27.37;31.56;99802.41;5109937;28;20010;-41
2023/05/05 12:17:41;;;;;;;;;;;;;;;27.48;31.43;99797.47;5110414;28;20418;-39
2023/05/05 12:20:07;;;;;;;;;;;;;;;27.77;30.68;99802.38;5110313;28;19951;-41
2023/05/05 12:22:32;;;;;;;;;;;;;;;26.31;33.06;99791.84;5110308;28;20090;-41
2023/05/05 12:25:02;;;;;;;;;;;;;;;26.89;32.70;99790.22;5103964;28;19944;-41
2023/05/05 12:27:27;;;;;;;;;;;;;;;27.35;32.33;99784.72;5090015;28;20478;-40
2023/05/05 12:29:56;;;;;;;;;;;;;;;27.44;32.46;99785.56;5093285;28;19912;-41
2023/05/05 12:32:23;;;;;;;;;;;;;;;26.81;32.67;99782.78;5093767;28;19912;-42
2023/05/05 12:34:52;;;;;;;;;;;;;;;26.10;34.36;99790.66;5093440;28;19912;-42
2023/05/05 12:37:17;;;;;;;;;;;;;;;25.56;34.46;99783.00;5093319;28;20055;-41
2023/05/05 12:39:43;;;;;;;;;;;;;;;25.13;35.65;99785.13;5091890;28;20019;-40
2023/05/05 12:42:08;;;;;;;;;;;;;;;25.25;35.83;99779.25;5091640;28;20066;-40